sensor_id;sensor_type;location;lat;lon;timestamp;P1;durP1;ratioP1;P2;durP2;ratioP2
38567;SDS011;24338;48.280;10.970;2023-05-07T00:02:15;10.18;;;4.90;;
38567;SDS011;24338;48.280;10.970;2023-05-07T00:04:42;7.00;;;4.68;;
38567;SDS011;24338;48.280;10.970;2023-05-07T00:07:10;8.88;;;4.97;;
38567;SDS011;24338;48.280;10.970;2023-05-07T00:09:37;8.52;;;5.70;;
38567;SDS011;24338;48.280;10.970;2023-05-07T00:12:03;7.07;;;5.30;;
38567;SDS011;24338;48.280;10.970;2023-05-07T00:14:30;8.07;;;5.38;;
38567;SDS011;24338;48.280;10.970;2023-05-07T00:16:57;8.75;;;5.20;;
38567;SDS011;24338;48.280;10.970;2023-05-07T00:19:24;12.40;;;5.72;;
38567;SDS011;24338;48.280;10.970;2023-05-07T00:21:51;7.22;;;5.40;;
38567;SDS011;24338;48.280;10.970;2023-05-07T00:24:20;7.68;;;5.22;;
38567;SDS011;24338;48.280;10.970;2023-05-07T00:26:47;7.45;;;5.88;;
38567;SDS011;24338;48.280;10.970;2023-05-07T00:29:13;7.70;;;5.40;;
38567;SDS011;24338;48.280;10.970;2023-05-07T00:31:40;8.98;;;6.00;;
38567;SDS011;24338;48.280;10.970;2023-05-07T00:34:07;8.48;;;5.70;;
38567;SDS011;24338;48.280;10.970;2023-05-07T00:36:34;9.98;;;6.00;;
38567;SDS011;24338;48.280;10.970;2023-05-07T00:39:01;6.57;;;5.53;;
38567;SDS011;24338;48.280;10.970;2023-05-07T00:41:29;6.40;;;5.18;;
38567;SDS011;24338;48.280;10.970;2023-05-07T00:43:57;9.35;;;5.60;;
38567;SDS011;24338;48.280;10.970;2023-05-07T00:46:24;8.00;;;5.55;;
38567;SDS011;24338;48.280;10.970;2023-05-07T00:48:51;10.57;;;6.45;;
38567;SDS011;24338;48.280;10.970;2023-05-07T00:51:18;7.57;;;6.47;;
38567;SDS011;24338;48.280;10.970;2023-05-07T00:53:45;9.23;;;5.80;;
38567;SDS011;24338;48.280;10.970;2023-05-07T00:56:12;10.73;;;5.93;;
38567;SDS011;24338;48.280;10.970;2023-05-07T00:58:40;9.18;;;6.53;;
38567;SDS011;24338;48.280;10.970;2023-05-07T01:01:06;7.28;;;5.95;;
38567;SDS011;24338;48.280;10.970;2023-05-07T01:03:33;7.43;;;5.00;;
38567;SDS011;24338;48.280;10.970;2023-05-07T01:06:01;8.77;;;5.43;;
38567;SDS011;24338;48.280;10.970;2023-05-07T01:08:29;6.80;;;5.43;;
38567;SDS011;24338;48.280;10.970;2023-05-07T01:10:58;8.88;;;6.13;;
38567;SDS011;24338;48.280;10.970;2023-05-07T01:13:26;11.40;;;6.50;;
38567;SDS011;24338;48.280;10.970;2023-05-07T01:15:54;11.25;;;6.30;;
38567;SDS011;24338;48.280;10.970;2023-05-07T01:18:21;8.73;;;5.93;;
38567;SDS011;24338;48.280;10.970;2023-05-07T01:20:48;8.57;;;6.32;;
38567;SDS011;24338;48.280;10.970;2023-05-07T01:23:15;12.07;;;5.85;;
38567;SDS011;24338;48.280;10.970;2023-05-07T01:25:42;7.47;;;5.78;;
38567;SDS011;24338;48.280;10.970;2023-05-07T01:28:09;7.18;;;5.90;;
38567;SDS011;24338;48.280;10.970;2023-05-07T01:30:35;9.25;;;5.57;;
38567;SDS011;24338;48.280;10.970;2023-05-07T01:33:13;11.63;;;5.63;;
38567;SDS011;24338;48.280;10.970;2023-05-07T01:35:42;6.68;;;5.47;;
38567;SDS011;24338;48.280;10.970;2023-05-07T01:38:12;9.00;;;6.07;;
38567;SDS011;24338;48.280;10.970;2023-05-07T01:40:40;8.55;;;5.78;;
38567;SDS011;24338;48.280;10.970;2023-05-07T01:43:07;8.18;;;5.60;;
38567;SDS011;24338;48.280;10.970;2023-05-07T01:45:35;7.78;;;5.53;;
38567;SDS011;24338;48.280;10.970;2023-05-07T01:48:02;7.00;;;5.25;;
38567;SDS011;24338;48.280;10.970;2023-05-07T01:50:30;6.18;;;5.05;;
38567;SDS011;24338;48.280;10.970;2023-05-07T01:52:58;7.07;;;4.30;;
38567;SDS011;24338;48.280;10.970;2023-05-07T01:55:25;7.82;;;5.43;;
38567;SDS011;24338;48.280;10.970;2023-05-07T01:57:52;7.75;;;4.68;;
38567;SDS011;24338;48.280;10.970;2023-05-07T02:00:19;7.07;;;5.40;;
38567;SDS011;24338;48.280;10.970;2023-05-07T02:02:46;10.05;;;5.85;;
38567;SDS011;24338;48.280;10.970;2023-05-07T02:05:13;7.63;;;5.10;;
38567;SDS011;24338;48.280;10.970;2023-05-07T02:07:40;10.00;;;6.30;;
38567;SDS011;24338;48.280;10.970;2023-05-07T02:10:07;15.25;;;5.95;;
38567;SDS011;24338;48.280;10.970;2023-05-07T02:12:34;8.15;;;5.82;;
38567;SDS011;24338;48.280;10.970;2023-05-07T02:15:01;11.32;;;6.03;;
38567;SDS011;24338;48.280;10.970;2023-05-07T02:17:28;13.18;;;6.60;;
38567;SDS011;24338;48.280;10.970;2023-05-07T02:19:58;8.48;;;5.78;;
38567;SDS011;24338;48.280;10.970;2023-05-07T02:22:25;7.03;;;5.32;;
38567;SDS011;24338;48.280;10.970;2023-05-07T02:24:52;8.02;;;5.55;;
38567;SDS011;24338;48.280;10.970;2023-05-07T02:27:19;7.72;;;5.90;;
38567;SDS011;24338;48.280;10.970;2023-05-07T02:29:46;6.82;;;5.88;;
38567;SDS011;24338;48.280;10.970;2023-05-07T02:32:13;7.75;;;5.70;;
38567;SDS011;24338;48.280;10.970;2023-05-07T02:34:40;9.80;;;6.25;;
38567;SDS011;24338;48.280;10.970;2023-05-07T02:37:07;7.68;;;6.07;;
38567;SDS011;24338;48.280;10.970;2023-05-07T02:39:34;11.73;;;6.57;;
38567;SDS011;24338;48.280;10.970;2023-05-07T02:42:02;9.98;;;6.10;;
38567;SDS011;24338;48.280;10.970;2023-05-07T02:44:29;8.75;;;5.95;;
38567;SDS011;24338;48.280;10.970;2023-05-07T02:46:57;9.63;;;5.20;;
38567;SDS011;24338;48.280;10.970;2023-05-07T02:49:24;9.23;;;5.95;;
38567;SDS011;24338;48.280;10.970;2023-05-07T02:51:51;9.27;;;5.03;;
38567;SDS011;24338;48.280;10.970;2023-05-07T02:54:17;8.93;;;5.78;;
38567;SDS011;24338;48.280;10.970;2023-05-07T02:56:44;8.70;;;6.20;;
38567;SDS011;24338;48.280;10.970;2023-05-07T02:59:11;9.95;;;6.10;;
38567;SDS011;24338;48.280;10.970;2023-05-07T03:01:38;7.30;;;6.03;;
38567;SDS011;24338;48.280;10.970;2023-05-07T03:04:05;7.13;;;5.95;;
38567;SDS011;24338;48.280;10.970;2023-05-07T03:06:32;7.57;;;6.03;;
38567;SDS011;24338;48.280;10.970;2023-05-07T03:08:59;10.80;;;5.78;;
38567;SDS011;24338;48.280;10.970;2023-05-07T03:11:25;8.73;;;5.65;;
38567;SDS011;24338;48.280;10.970;2023-05-07T03:13:52;9.25;;;5.38;;
38567;SDS011;24338;48.280;10.970;2023-05-07T03:16:19;8.65;;;6.50;;
38567;SDS011;24338;48.280;10.970;2023-05-07T03:18:47;6.45;;;5.38;;
38567;SDS011;24338;48.280;10.970;2023-05-07T03:21:13;9.45;;;5.72;;
38567;SDS011;24338;48.280;10.970;2023-05-07T03:23:40;8.40;;;6.45;;
38567;SDS011;24338;48.280;10.970;2023-05-07T03:26:07;7.70;;;5.80;;
38567;SDS011;24338;48.280;10.970;2023-05-07T03:28:34;8.48;;;6.70;;
38567;SDS011;24338;48.280;10.970;2023-05-07T03:31:01;10.35;;;6.97;;
38567;SDS011;24338;48.280;10.970;2023-05-07T03:33:28;8.27;;;6.57;;
38567;SDS011;24338;48.280;10.970;2023-05-07T03:35:55;8.73;;;6.40;;
38567;SDS011;24338;48.280;10.970;2023-05-07T03:38:22;7.40;;;6.35;;
38567;SDS011;24338;48.280;10.970;2023-05-07T03:40:48;12.88;;;6.95;;
38567;SDS011;24338;48.280;10.970;2023-05-07T03:43:15;10.30;;;7.00;;
38567;SDS011;24338;48.280;10.970;2023-05-07T03:45:42;8.52;;;7.32;;
38567;SDS011;24338;48.280;10.970;2023-05-07T03:48:09;9.52;;;6.80;;
38567;SDS011;24338;48.280;10.970;2023-05-07T03:50:36;9.07;;;5.93;;
38567;SDS011;24338;48.280;10.970;2023-05-07T03:53:04;6.93;;;5.82;;
38567;SDS011;24338;48.280;10.970;2023-05-07T03:55:31;7.88;;;6.00;;
38567;SDS011;24338;48.280;10.970;2023-05-07T03:57:58;7.03;;;5.97;;
38567;SDS011;24338;48.280;10.970;2023-05-07T04:00:24;9.80;;;6.32;;
38567;SDS011;24338;48.280;10.970;2023-05-07T04:02:54;8.52;;;5.90;;
38567;SDS011;24338;48.280;10.970;2023-05-07T04:05:20;7.82;;;6.47;;
38567;SDS011;24338;48.280;10.970;2023-05-07T04:07:47;9.70;;;6.28;;
38567;SDS011;24338;48.280;10.970;2023-05-07T04:10:14;9.95;;;6.53;;
38567;SDS011;24338;48.280;10.970;2023-05-07T04:12:41;7.65;;;6.10;;
38567;SDS011;24338;48.280;10.970;2023-05-07T04:15:08;8.32;;;6.40;;
38567;SDS011;24338;48.280;10.970;2023-05-07T04:17:35;6.68;;;5.70;;
38567;SDS011;24338;48.280;10.970;2023-05-07T04:20:02;8.55;;;6.82;;
38567;SDS011;24338;48.280;10.970;2023-05-07T04:22:47;10.38;;;6.47;;
38567;SDS011;24338;48.280;10.970;2023-05-07T05:12:21;13.77;;;8.80;;
38567;SDS011;24338;48.280;10.970;2023-05-07T05:16:21;10.65;;;8.20;;
38567;SDS011;24338;48.280;10.970;2023-05-07T05:19:57;8.57;;;7.38;;
38567;SDS011;24338;48.280;10.970;2023-05-07T05:23:47;9.90;;;7.30;;
38567;SDS011;24338;48.280;10.970;2023-05-07T05:31:23;10.27;;;7.38;;
38567;SDS011;24338;48.280;10.970;2023-05-07T05:46:45;12.68;;;10.75;;
38567;SDS011;24338;48.280;10.970;2023-05-07T05:50:15;14.43;;;11.30;;
38567;SDS011;24338;48.280;10.970;2023-05-07T05:57:52;18.58;;;12.02;;
38567;SDS011;24338;48.280;10.970;2023-05-07T06:01:59;13.23;;;11.00;;
38567;SDS011;24338;48.280;10.970;2023-05-07T06:06:03;14.20;;;11.63;;
38567;SDS011;24338;48.280;10.970;2023-05-07T06:14:20;13.00;;;9.50;;
38567;SDS011;24338;48.280;10.970;2023-05-07T06:18:10;12.35;;;10.55;;
38567;SDS011;24338;48.280;10.970;2023-05-07T06:21:43;14.02;;;10.98;;
38567;SDS011;24338;48.280;10.970;2023-05-07T06:24:34;16.88;;;11.25;;
38567;SDS011;24338;48.280;10.970;2023-05-07T06:28:34;12.25;;;10.38;;
38567;SDS011;24338;48.280;10.970;2023-05-07T06:32:34;11.68;;;9.25;;
38567;SDS011;24338;48.280;10.970;2023-05-07T06:36:03;12.02;;;9.75;;
38567;SDS011;24338;48.280;10.970;2023-05-07T06:38:30;13.23;;;10.13;;
38567;SDS011;24338;48.280;10.970;2023-05-07T06:40:57;13.38;;;9.50;;
38567;SDS011;24338;48.280;10.970;2023-05-07T06:43:24;10.25;;;8.77;;
38567;SDS011;24338;48.280;10.970;2023-05-07T06:45:51;12.18;;;9.27;;
38567;SDS011;24338;48.280;10.970;2023-05-07T06:48:18;11.80;;;9.32;;
38567;SDS011;24338;48.280;10.970;2023-05-07T06:50:44;10.48;;;9.20;;
38567;SDS011;24338;48.280;10.970;2023-05-07T06:53:11;11.05;;;9.43;;
38567;SDS011;24338;48.280;10.970;2023-05-07T06:55:38;9.75;;;8.40;;
38567;SDS011;24338;48.280;10.970;2023-05-07T06:58:05;10.10;;;8.32;;
38567;SDS011;24338;48.280;10.970;2023-05-07T07:00:32;10.95;;;8.10;;
38567;SDS011;24338;48.280;10.970;2023-05-07T07:02:59;11.85;;;8.60;;
38567;SDS011;24338;48.280;10.970;2023-05-07T07:05:26;9.20;;;8.20;;
38567;SDS011;24338;48.280;10.970;2023-05-07T07:07:53;8.77;;;7.65;;
38567;SDS011;24338;48.280;10.970;2023-05-07T07:10:20;9.57;;;7.85;;
38567;SDS011;24338;48.280;10.970;2023-05-07T07:12:48;8.90;;;7.85;;
38567;SDS011;24338;48.280;10.970;2023-05-07T07:15:16;8.25;;;7.25;;
38567;SDS011;24338;48.280;10.970;2023-05-07T07:17:42;11.70;;;7.82;;
38567;SDS011;24338;48.280;10.970;2023-05-07T07:20:09;10.02;;;7.82;;
38567;SDS011;24338;48.280;10.970;2023-05-07T07:22:37;10.02;;;8.48;;
38567;SDS011;24338;48.280;10.970;2023-05-07T07:25:04;10.93;;;8.23;;
38567;SDS011;24338;48.280;10.970;2023-05-07T07:27:31;9.55;;;7.95;;
38567;SDS011;24338;48.280;10.970;2023-05-07T07:29:58;10.35;;;8.23;;
38567;SDS011;24338;48.280;10.970;2023-05-07T07:32:25;9.45;;;7.07;;
38567;SDS011;24338;48.280;10.970;2023-05-07T07:34:52;10.23;;;7.00;;
38567;SDS011;24338;48.280;10.970;2023-05-07T07:37:19;9.27;;;6.60;;
38567;SDS011;24338;48.280;10.970;2023-05-07T07:39:46;9.40;;;7.25;;
38567;SDS011;24338;48.280;10.970;2023-05-07T07:42:13;9.82;;;5.90;;
38567;SDS011;24338;48.280;10.970;2023-05-07T07:44:40;8.07;;;5.47;;
38567;SDS011;24338;48.280;10.970;2023-05-07T07:47:06;5.53;;;4.55;;
38567;SDS011;24338;48.280;10.970;2023-05-07T07:49:33;6.93;;;4.88;;
38567;SDS011;24338;48.280;10.970;2023-05-07T07:52:01;7.53;;;5.07;;
38567;SDS011;24338;48.280;10.970;2023-05-07T07:54:40;6.45;;;4.72;;
38567;SDS011;24338;48.280;10.970;2023-05-07T07:57:30;7.05;;;5.25;;
38567;SDS011;24338;48.280;10.970;2023-05-07T08:01:22;5.20;;;3.90;;
38567;SDS011;24338;48.280;10.970;2023-05-07T08:03:54;6.07;;;4.38;;
38567;SDS011;24338;48.280;10.970;2023-05-07T08:06:25;5.95;;;4.60;;
38567;SDS011;24338;48.280;10.970;2023-05-07T08:09:27;6.00;;;4.18;;
38567;SDS011;24338;48.280;10.970;2023-05-07T08:12:17;5.53;;;4.25;;
38567;SDS011;24338;48.280;10.970;2023-05-07T08:15:06;6.78;;;4.35;;
38567;SDS011;24338;48.280;10.970;2023-05-07T08:17:50;5.32;;;4.13;;
38567;SDS011;24338;48.280;10.970;2023-05-07T08:20:21;7.20;;;4.70;;
38567;SDS011;24338;48.280;10.970;2023-05-07T08:23:04;6.88;;;4.57;;
38567;SDS011;24338;48.280;10.970;2023-05-07T08:48:14;7.30;;;4.68;;
38567;SDS011;24338;48.280;10.970;2023-05-07T09:41:52;3.92;;;1.70;;
38567;SDS011;24338;48.280;10.970;2023-05-07T09:44:20;5.18;;;1.77;;
38567;SDS011;24338;48.280;10.970;2023-05-07T09:46:51;3.50;;;2.10;;
38567;SDS011;24338;48.280;10.970;2023-05-07T09:49:22;4.05;;;2.03;;
38567;SDS011;24338;48.280;10.970;2023-05-07T09:51:52;5.03;;;1.92;;
38567;SDS011;24338;48.280;10.970;2023-05-07T09:54:19;2.85;;;1.65;;
38567;SDS011;24338;48.280;10.970;2023-05-07T09:56:47;3.03;;;1.70;;
38567;SDS011;24338;48.280;10.970;2023-05-07T09:59:15;2.95;;;1.63;;
38567;SDS011;24338;48.280;10.970;2023-05-07T10:01:43;2.83;;;1.10;;
38567;SDS011;24338;48.280;10.970;2023-05-07T10:04:11;2.80;;;1.35;;
38567;SDS011;24338;48.280;10.970;2023-05-07T10:06:40;2.20;;;1.15;;
38567;SDS011;24338;48.280;10.970;2023-05-07T10:09:08;4.38;;;2.38;;
38567;SDS011;24338;48.280;10.970;2023-05-07T10:11:37;4.80;;;2.22;;
38567;SDS011;24338;48.280;10.970;2023-05-07T10:14:04;4.63;;;2.42;;
38567;SDS011;24338;48.280;10.970;2023-05-07T10:16:37;4.88;;;1.90;;
38567;SDS011;24338;48.280;10.970;2023-05-07T10:19:10;2.63;;;1.50;;
38567;SDS011;24338;48.280;10.970;2023-05-07T10:21:37;2.60;;;1.20;;
38567;SDS011;24338;48.280;10.970;2023-05-07T10:24:36;3.17;;;1.52;;
38567;SDS011;24338;48.280;10.970;2023-05-07T10:27:10;2.63;;;1.33;;
38567;SDS011;24338;48.280;10.970;2023-05-07T10:35:14;2.78;;;1.40;;
38567;SDS011;24338;48.280;10.970;2023-05-07T10:37:45;5.85;;;1.20;;
38567;SDS011;24338;48.280;10.970;2023-05-07T10:40:13;2.50;;;1.02;;
38567;SDS011;24338;48.280;10.970;2023-05-07T10:42:52;1.58;;;0.80;;
38567;SDS011;24338;48.280;10.970;2023-05-07T10:45:24;2.90;;;1.10;;
38567;SDS011;24338;48.280;10.970;2023-05-07T10:48:10;2.60;;;1.10;;
38567;SDS011;24338;48.280;10.970;2023-05-07T10:50:53;2.20;;;1.13;;
38567;SDS011;24338;48.280;10.970;2023-05-07T10:53:48;2.25;;;0.90;;
38567;SDS011;24338;48.280;10.970;2023-05-07T10:58:47;2.63;;;0.90;;
38567;SDS011;24338;48.280;10.970;2023-05-07T11:01:14;2.25;;;0.70;;
38567;SDS011;24338;48.280;10.970;2023-05-07T11:04:16;2.58;;;0.50;;
38567;SDS011;24338;48.280;10.970;2023-05-07T11:15:07;1.88;;;0.85;;
38567;SDS011;24338;48.280;10.970;2023-05-07T11:17:55;1.67;;;0.80;;
38567;SDS011;24338;48.280;10.970;2023-05-07T11:26:08;2.92;;;0.80;;
38567;SDS011;24338;48.280;10.970;2023-05-07T11:28:42;2.97;;;0.68;;
38567;SDS011;24338;48.280;10.970;2023-05-07T11:31:10;1.08;;;0.57;;
38567;SDS011;24338;48.280;10.970;2023-05-07T11:33:38;2.13;;;0.55;;
38567;SDS011;24338;48.280;10.970;2023-05-07T11:36:07;2.35;;;0.60;;
38567;SDS011;24338;48.280;10.970;2023-05-07T11:38:36;1.92;;;0.63;;
38567;SDS011;24338;48.280;10.970;2023-05-07T11:41:35;1.88;;;0.60;;
38567;SDS011;24338;48.280;10.970;2023-05-07T11:44:03;3.20;;;0.70;;
38567;SDS011;24338;48.280;10.970;2023-05-07T11:46:30;2.33;;;0.70;;
38567;SDS011;24338;48.280;10.970;2023-05-07T11:48:58;4.03;;;0.80;;
38567;SDS011;24338;48.280;10.970;2023-05-07T11:51:27;2.97;;;0.65;;
38567;SDS011;24338;48.280;10.970;2023-05-07T11:53:53;2.53;;;0.80;;
38567;SDS011;24338;48.280;10.970;2023-05-07T11:56:20;2.47;;;1.08;;
38567;SDS011;24338;48.280;10.970;2023-05-07T11:58:47;2.75;;;0.73;;
38567;SDS011;24338;48.280;10.970;2023-05-07T12:01:14;2.72;;;0.80;;
38567;SDS011;24338;48.280;10.970;2023-05-07T12:03:43;1.75;;;0.73;;
38567;SDS011;24338;48.280;10.970;2023-05-07T12:06:13;1.40;;;0.60;;
38567;SDS011;24338;48.280;10.970;2023-05-07T12:08:42;1.13;;;0.60;;
38567;SDS011;24338;48.280;10.970;2023-05-07T12:13:42;3.10;;;0.70;;
38567;SDS011;24338;48.280;10.970;2023-05-07T12:16:09;4.72;;;1.02;;
38567;SDS011;24338;48.280;10.970;2023-05-07T12:18:37;2.22;;;0.68;;
38567;SDS011;24338;48.280;10.970;2023-05-07T12:21:05;2.53;;;0.90;;
38567;SDS011;24338;48.280;10.970;2023-05-07T12:23:33;4.38;;;1.10;;
38567;SDS011;24338;48.280;10.970;2023-05-07T12:26:04;3.17;;;1.13;;
38567;SDS011;24338;48.280;10.970;2023-05-07T12:28:36;3.28;;;0.82;;
38567;SDS011;24338;48.280;10.970;2023-05-07T12:31:07;2.88;;;1.02;;
38567;SDS011;24338;48.280;10.970;2023-05-07T12:33:34;2.63;;;1.13;;
38567;SDS011;24338;48.280;10.970;2023-05-07T12:36:03;2.50;;;0.80;;
38567;SDS011;24338;48.280;10.970;2023-05-07T12:38:34;3.13;;;0.80;;
38567;SDS011;24338;48.280;10.970;2023-05-07T12:43:33;1.83;;;0.70;;
38567;SDS011;24338;48.280;10.970;2023-05-07T12:46:01;2.83;;;0.85;;
38567;SDS011;24338;48.280;10.970;2023-05-07T12:51:01;2.85;;;0.80;;
38567;SDS011;24338;48.280;10.970;2023-05-07T12:53:29;1.38;;;0.68;;
38567;SDS011;24338;48.280;10.970;2023-05-07T12:55:57;2.45;;;0.88;;
38567;SDS011;24338;48.280;10.970;2023-05-07T13:00:53;2.20;;;0.90;;
38567;SDS011;24338;48.280;10.970;2023-05-07T13:03:29;2.78;;;0.95;;
38567;SDS011;24338;48.280;10.970;2023-05-07T13:06:02;1.23;;;0.55;;
38567;SDS011;24338;48.280;10.970;2023-05-07T13:08:37;2.58;;;0.75;;
38567;SDS011;24338;48.280;10.970;2023-05-07T13:11:10;2.55;;;0.90;;
38567;SDS011;24338;48.280;10.970;2023-05-07T13:13:38;3.00;;;0.90;;
38567;SDS011;24338;48.280;10.970;2023-05-07T13:16:07;2.00;;;0.80;;
38567;SDS011;24338;48.280;10.970;2023-05-07T13:18:35;1.95;;;0.88;;
38567;SDS011;24338;48.280;10.970;2023-05-07T13:21:04;1.95;;;1.00;;
38567;SDS011;24338;48.280;10.970;2023-05-07T13:23:31;4.82;;;0.88;;
38567;SDS011;24338;48.280;10.970;2023-05-07T13:25:58;0.90;;;0.50;;
38567;SDS011;24338;48.280;10.970;2023-05-07T13:30:56;3.33;;;1.33;;
38567;SDS011;24338;48.280;10.970;2023-05-07T13:33:23;3.78;;;1.05;;
38567;SDS011;24338;48.280;10.970;2023-05-07T13:35:52;2.33;;;0.60;;
38567;SDS011;24338;48.280;10.970;2023-05-07T13:38:19;3.33;;;1.20;;
38567;SDS011;24338;48.280;10.970;2023-05-07T13:40:48;2.67;;;0.90;;
38567;SDS011;24338;48.280;10.970;2023-05-07T13:43:15;1.55;;;0.80;;
38567;SDS011;24338;48.280;10.970;2023-05-07T13:45:43;1.10;;;0.70;;
38567;SDS011;24338;48.280;10.970;2023-05-07T13:48:10;2.08;;;0.77;;
38567;SDS011;24338;48.280;10.970;2023-05-07T13:50:37;4.72;;;1.00;;
38567;SDS011;24338;48.280;10.970;2023-05-07T13:53:04;1.88;;;0.77;;
38567;SDS011;24338;48.280;10.970;2023-05-07T13:55:31;2.35;;;0.88;;
38567;SDS011;24338;48.280;10.970;2023-05-07T13:57:59;4.00;;;1.20;;
38567;SDS011;24338;48.280;10.970;2023-05-07T14:00:27;2.42;;;0.90;;
38567;SDS011;24338;48.280;10.970;2023-05-07T14:02:55;2.20;;;0.85;;
38567;SDS011;24338;48.280;10.970;2023-05-07T14:05:22;2.05;;;1.13;;
38567;SDS011;24338;48.280;10.970;2023-05-07T14:07:50;3.95;;;1.45;;
38567;SDS011;24338;48.280;10.970;2023-05-07T14:10:18;2.10;;;0.98;;
38567;SDS011;24338;48.280;10.970;2023-05-07T14:12:52;3.63;;;1.33;;
38567;SDS011;24338;48.280;10.970;2023-05-07T14:15:21;3.40;;;1.95;;
38567;SDS011;24338;48.280;10.970;2023-05-07T14:17:48;3.13;;;1.80;;
38567;SDS011;24338;48.280;10.970;2023-05-07T14:20:15;2.95;;;1.30;;
38567;SDS011;24338;48.280;10.970;2023-05-07T14:22:41;2.22;;;1.35;;
38567;SDS011;24338;48.280;10.970;2023-05-07T14:25:08;3.63;;;1.60;;
38567;SDS011;24338;48.280;10.970;2023-05-07T14:27:39;2.33;;;1.63;;
38567;SDS011;24338;48.280;10.970;2023-05-07T14:30:22;3.50;;;2.13;;
38567;SDS011;24338;48.280;10.970;2023-05-07T14:32:53;4.07;;;1.75;;
38567;SDS011;24338;48.280;10.970;2023-05-07T14:35:20;3.78;;;1.98;;
38567;SDS011;24338;48.280;10.970;2023-05-07T14:37:52;3.00;;;1.80;;
38567;SDS011;24338;48.280;10.970;2023-05-07T14:40:49;5.50;;;2.67;;
38567;SDS011;24338;48.280;10.970;2023-05-07T14:43:34;3.95;;;2.10;;
38567;SDS011;24338;48.280;10.970;2023-05-07T14:46:07;5.75;;;2.17;;
38567;SDS011;24338;48.280;10.970;2023-05-07T14:48:54;2.88;;;1.65;;
38567;SDS011;24338;48.280;10.970;2023-05-07T14:51:21;3.65;;;1.73;;
38567;SDS011;24338;48.280;10.970;2023-05-07T14:53:48;4.20;;;2.25;;
38567;SDS011;24338;48.280;10.970;2023-05-07T14:56:16;2.63;;;1.70;;
38567;SDS011;24338;48.280;10.970;2023-05-07T14:58:43;3.40;;;1.95;;
38567;SDS011;24338;48.280;10.970;2023-05-07T15:01:13;4.50;;;1.80;;
38567;SDS011;24338;48.280;10.970;2023-05-07T15:03:41;3.45;;;1.67;;
38567;SDS011;24338;48.280;10.970;2023-05-07T15:06:24;4.35;;;2.20;;
38567;SDS011;24338;48.280;10.970;2023-05-07T15:16:19;3.30;;;1.90;;
38567;SDS011;24338;48.280;10.970;2023-05-07T15:18:46;4.13;;;1.55;;
38567;SDS011;24338;48.280;10.970;2023-05-07T15:25:00;5.18;;;1.90;;
38567;SDS011;24338;48.280;10.970;2023-05-07T15:27:29;3.20;;;2.05;;
38567;SDS011;24338;48.280;10.970;2023-05-07T15:29:57;2.80;;;1.52;;
38567;SDS011;24338;48.280;10.970;2023-05-07T15:32:24;5.00;;;2.58;;
38567;SDS011;24338;48.280;10.970;2023-05-07T15:34:51;5.63;;;1.90;;
38567;SDS011;24338;48.280;10.970;2023-05-07T15:37:18;3.00;;;1.70;;
38567;SDS011;24338;48.280;10.970;2023-05-07T15:39:45;3.42;;;1.65;;
38567;SDS011;24338;48.280;10.970;2023-05-07T15:42:12;6.22;;;1.85;;
38567;SDS011;24338;48.280;10.970;2023-05-07T15:44:40;3.78;;;1.83;;
38567;SDS011;24338;48.280;10.970;2023-05-07T15:47:08;2.72;;;1.35;;
38567;SDS011;24338;48.280;10.970;2023-05-07T15:49:35;5.68;;;1.77;;
38567;SDS011;24338;48.280;10.970;2023-05-07T15:52:01;3.42;;;1.67;;
38567;SDS011;24338;48.280;10.970;2023-05-07T15:54:29;3.65;;;1.75;;
38567;SDS011;24338;48.280;10.970;2023-05-07T15:56:56;3.35;;;1.65;;
38567;SDS011;24338;48.280;10.970;2023-05-07T15:59:23;6.10;;;1.80;;
38567;SDS011;24338;48.280;10.970;2023-05-07T16:01:50;2.13;;;1.33;;
38567;SDS011;24338;48.280;10.970;2023-05-07T16:04:18;4.78;;;1.70;;
38567;SDS011;24338;48.280;10.970;2023-05-07T16:06:44;2.72;;;1.50;;
38567;SDS011;24338;48.280;10.970;2023-05-07T16:09:13;2.92;;;1.50;;
38567;SDS011;24338;48.280;10.970;2023-05-07T16:11:40;3.13;;;1.73;;
38567;SDS011;24338;48.280;10.970;2023-05-07T16:14:07;4.60;;;1.63;;
38567;SDS011;24338;48.280;10.970;2023-05-07T16:16:35;4.55;;;1.30;;
38567;SDS011;24338;48.280;10.970;2023-05-07T16:19:03;3.35;;;1.20;;
38567;SDS011;24338;48.280;10.970;2023-05-07T16:21:30;5.88;;;1.85;;
38567;SDS011;24338;48.280;10.970;2023-05-07T16:23:58;3.42;;;1.85;;
38567;SDS011;24338;48.280;10.970;2023-05-07T16:26:25;2.22;;;1.27;;
38567;SDS011;24338;48.280;10.970;2023-05-07T16:28:52;2.40;;;1.48;;
38567;SDS011;24338;48.280;10.970;2023-05-07T16:31:18;2.20;;;1.35;;
38567;SDS011;24338;48.280;10.970;2023-05-07T16:33:45;3.83;;;2.00;;
38567;SDS011;24338;48.280;10.970;2023-05-07T16:36:12;4.80;;;1.58;;
38567;SDS011;24338;48.280;10.970;2023-05-07T16:38:39;3.22;;;1.50;;
38567;SDS011;24338;48.280;10.970;2023-05-07T16:41:06;4.20;;;1.48;;
38567;SDS011;24338;48.280;10.970;2023-05-07T16:43:33;2.67;;;1.55;;
38567;SDS011;24338;48.280;10.970;2023-05-07T16:46:00;3.20;;;1.48;;
38567;SDS011;24338;48.280;10.970;2023-05-07T16:48:27;3.13;;;1.27;;
38567;SDS011;24338;48.280;10.970;2023-05-07T16:50:53;4.65;;;1.70;;
38567;SDS011;24338;48.280;10.970;2023-05-07T16:53:21;2.55;;;1.45;;
38567;SDS011;24338;48.280;10.970;2023-05-07T16:55:47;3.33;;;1.98;;
38567;SDS011;24338;48.280;10.970;2023-05-07T16:58:14;3.60;;;2.03;;
38567;SDS011;24338;48.280;10.970;2023-05-07T17:00:41;3.05;;;1.70;;
38567;SDS011;24338;48.280;10.970;2023-05-07T17:03:16;4.65;;;2.55;;
38567;SDS011;24338;48.280;10.970;2023-05-07T17:05:43;3.60;;;1.60;;
38567;SDS011;24338;48.280;10.970;2023-05-07T17:08:10;2.70;;;1.50;;
38567;SDS011;24338;48.280;10.970;2023-05-07T17:10:39;2.90;;;1.83;;
38567;SDS011;24338;48.280;10.970;2023-05-07T17:13:06;6.90;;;1.73;;
38567;SDS011;24338;48.280;10.970;2023-05-07T17:15:33;4.78;;;1.98;;
38567;SDS011;24338;48.280;10.970;2023-05-07T17:18:00;2.42;;;1.58;;
38567;SDS011;24338;48.280;10.970;2023-05-07T17:20:27;3.88;;;1.73;;
38567;SDS011;24338;48.280;10.970;2023-05-07T17:22:54;2.83;;;1.75;;
38567;SDS011;24338;48.280;10.970;2023-05-07T17:25:21;4.75;;;1.42;;
38567;SDS011;24338;48.280;10.970;2023-05-07T17:27:48;5.63;;;1.92;;
38567;SDS011;24338;48.280;10.970;2023-05-07T17:30:16;3.17;;;1.77;;
38567;SDS011;24338;48.280;10.970;2023-05-07T17:32:43;2.70;;;1.38;;
38567;SDS011;24338;48.280;10.970;2023-05-07T17:35:10;3.42;;;1.70;;
38567;SDS011;24338;48.280;10.970;2023-05-07T17:37:36;3.60;;;1.27;;
38567;SDS011;24338;48.280;10.970;2023-05-07T17:40:04;3.50;;;1.50;;
38567;SDS011;24338;48.280;10.970;2023-05-07T17:42:34;3.30;;;1.63;;
38567;SDS011;24338;48.280;10.970;2023-05-07T17:45:01;2.33;;;1.13;;
38567;SDS011;24338;48.280;10.970;2023-05-07T17:47:27;4.95;;;1.40;;
38567;SDS011;24338;48.280;10.970;2023-05-07T17:49:54;2.92;;;1.17;;
38567;SDS011;24338;48.280;10.970;2023-05-07T17:52:21;5.03;;;1.20;;
38567;SDS011;24338;48.280;10.970;2023-05-07T17:54:49;2.85;;;1.30;;
38567;SDS011;24338;48.280;10.970;2023-05-07T17:57:16;4.65;;;1.52;;
38567;SDS011;24338;48.280;10.970;2023-05-07T17:59:42;3.25;;;1.20;;
38567;SDS011;24338;48.280;10.970;2023-05-07T18:02:09;3.22;;;1.20;;
38567;SDS011;24338;48.280;10.970;2023-05-07T18:04:36;2.53;;;1.10;;
38567;SDS011;24338;48.280;10.970;2023-05-07T18:07:03;2.00;;;1.10;;
38567;SDS011;24338;48.280;10.970;2023-05-07T18:09:30;2.45;;;1.23;;
38567;SDS011;24338;48.280;10.970;2023-05-07T18:11:56;2.72;;;1.25;;
38567;SDS011;24338;48.280;10.970;2023-05-07T18:14:23;5.35;;;1.60;;
38567;SDS011;24338;48.280;10.970;2023-05-07T18:16:51;3.90;;;1.90;;